createdAt,value
2018-05-02T00:00:31.206Z,5.18
2018-05-02T00:03:00.166Z,6.50
2018-05-02T00:05:27.635Z,8.57
2018-05-02T00:07:55.097Z,9.25
2018-05-02T00:10:22.633Z,6.20
2018-05-02T00:12:50.190Z,5.53
2018-05-02T00:15:17.651Z,9.43
2018-05-02T00:17:46.071Z,8.52
2018-05-02T00:20:13.540Z,8.23
2018-05-02T00:22:41.863Z,4.97
2018-05-02T00:25:09.327Z,8.98
2018-05-02T00:27:37.221Z,5.72
2018-05-02T00:30:04.778Z,6.97
2018-05-02T00:32:32.239Z,5.57
2018-05-02T00:34:59.857Z,8.98
2018-05-02T00:37:27.351Z,8.02
2018-05-02T00:39:54.815Z,6.57
2018-05-02T00:42:22.371Z,5.57
2018-05-02T00:44:49.826Z,6.28
2018-05-02T00:47:17.291Z,9.43
2018-05-02T00:49:44.751Z,6.20
2018-05-02T00:52:12.207Z,7.07
2018-05-02T00:54:39.751Z,9.00
2018-05-02T00:57:08.050Z,9.13
2018-05-02T00:59:36.271Z,9.50
2018-05-02T01:02:03.730Z,13.13
2018-05-02T01:04:31.190Z,11.85
2018-05-02T01:06:58.657Z,10.02
2018-05-02T01:09:26.111Z,8.13
2018-05-02T01:11:53.577Z,7.18
2018-05-02T01:14:21.031Z,7.47
2018-05-02T01:16:48.485Z,5.55
2018-05-02T01:19:15.935Z,6.53
2018-05-02T01:21:43.398Z,9.88
2018-05-02T01:24:10.856Z,11.57
2018-05-02T01:26:38.327Z,6.00
2018-05-02T01:29:05.890Z,8.68
2018-05-02T01:31:33.360Z,8.75
2018-05-02T01:34:00.903Z,7.40
2018-05-02T01:36:28.498Z,9.02
2018-05-02T01:38:56.740Z,5.93
2018-05-02T01:41:24.291Z,5.93
2018-05-02T01:43:51.755Z,5.80
2018-05-02T01:46:19.249Z,7.80
2018-05-02T01:48:58.708Z,7.05
2018-05-02T01:51:26.160Z,6.72
2018-05-02T01:53:53.619Z,7.45
2018-05-02T01:56:21.114Z,5.28
2018-05-02T01:58:48.683Z,5.97
2018-05-02T02:01:16.235Z,8.80
2018-05-02T02:03:43.691Z,5.78
2018-05-02T02:06:11.143Z,4.80
2018-05-02T02:08:38.603Z,6.45
2018-05-02T02:11:06.122Z,6.22
2018-05-02T02:13:33.570Z,7.37
2018-05-02T02:16:01.083Z,4.47
2018-05-02T02:18:28.646Z,4.90
2018-05-02T02:20:56.920Z,7.82
2018-05-02T02:23:24.376Z,9.95
2018-05-02T02:25:51.831Z,7.22
2018-05-02T02:28:19.354Z,4.78
2018-05-02T02:30:46.805Z,4.45
2018-05-02T02:33:14.263Z,5.60
2018-05-02T02:35:41.752Z,7.32
2018-05-02T02:38:10.708Z,6.82
2018-05-02T02:40:38.198Z,5.30
2018-05-02T02:43:05.658Z,8.63
2018-05-02T02:45:33.210Z,7.60
2018-05-02T02:48:00.662Z,7.43
2018-05-02T02:50:28.127Z,6.10
2018-05-02T02:52:55.591Z,5.72
2018-05-02T02:55:23.135Z,4.57
2018-05-02T02:57:50.502Z,5.68
2018-05-02T03:00:18.055Z,5.95
2018-05-02T03:02:45.518Z,8.80
2018-05-02T03:05:12.976Z,6.37
2018-05-02T03:07:40.431Z,7.97
2018-05-02T03:10:07.985Z,5.70
2018-05-02T03:12:35.450Z,9.52
2018-05-02T03:15:02.921Z,10.10
2018-05-02T03:17:31.147Z,10.63
2018-05-02T03:19:58.644Z,5.82
2018-05-02T03:22:26.151Z,7.07
2018-05-02T03:24:53.603Z,6.28
2018-05-02T03:27:21.103Z,9.38
2018-05-02T03:29:48.555Z,5.50
2018-05-02T03:32:16.011Z,7.53
2018-05-02T03:34:43.484Z,4.82
2018-05-02T03:37:10.937Z,11.30
2018-05-02T03:39:38.593Z,6.62
2018-05-02T03:42:06.049Z,7.90
2018-05-02T03:44:33.602Z,7.97
2018-05-02T03:47:01.050Z,10.57
2018-05-02T03:49:28.515Z,5.50
2018-05-02T03:51:56.091Z,8.32
2018-05-02T03:54:24.398Z,7.43
2018-05-02T03:56:51.883Z,6.37
2018-05-02T03:59:25.303Z,8.27
2018-05-02T04:02:04.612Z,5.25
2018-05-02T04:04:44.083Z,6.97
2018-05-02T04:07:15.303Z,5.80
2018-05-02T04:09:42.763Z,9.77
2018-05-02T04:12:10.606Z,7.25
2018-05-02T04:14:38.064Z,7.90
2018-05-02T04:17:05.527Z,6.90
2018-05-02T04:19:32.993Z,3.95
2018-05-02T04:22:00.440Z,5.18
2018-05-02T04:24:28.041Z,6.45
2018-05-02T04:26:55.590Z,10.55
2018-05-02T04:29:23.806Z,6.25
2018-05-02T04:31:51.318Z,4.90
2018-05-02T04:34:18.939Z,8.07
2018-05-02T04:36:46.444Z,8.35
2018-05-02T04:39:13.900Z,12.85
2018-05-02T04:41:41.354Z,7.75
2018-05-02T04:44:08.812Z,5.97
2018-05-02T04:46:36.328Z,11.85
2018-05-02T04:49:03.869Z,6.82
2018-05-02T04:51:32.093Z,6.82
2018-05-02T04:53:59.619Z,10.93
2018-05-02T04:56:27.119Z,8.55
2018-05-02T04:58:54.571Z,8.75
2018-05-02T05:01:22.031Z,9.63
2018-05-02T05:03:49.489Z,11.40
2018-05-02T05:06:17.050Z,9.45
2018-05-02T05:08:44.603Z,8.10
2018-05-02T05:11:12.121Z,10.82
2018-05-02T05:13:39.583Z,13.43
2018-05-02T05:16:07.078Z,11.30
2018-05-02T05:18:35.305Z,10.77
2018-05-02T05:21:02.778Z,15.43
2018-05-02T05:23:30.266Z,8.65
2018-05-02T05:25:57.725Z,12.02
2018-05-02T05:28:25.189Z,15.10
2018-05-02T05:30:53.461Z,11.85
2018-05-02T05:33:20.935Z,12.43
2018-05-02T05:35:49.182Z,9.55
2018-05-02T05:38:16.649Z,10.00
2018-05-02T05:40:44.211Z,12.43
2018-05-02T05:43:11.781Z,11.27
2018-05-02T05:45:40.011Z,15.65
2018-05-02T05:48:07.480Z,13.48
2018-05-02T05:50:34.943Z,7.30
2018-05-02T05:53:02.455Z,20.05
2018-05-02T05:55:29.941Z,11.65
2018-05-02T05:57:57.408Z,11.00
2018-05-02T06:00:24.888Z,15.50
2018-05-02T06:02:53.135Z,10.55
2018-05-02T06:05:20.876Z,9.07
2018-05-02T06:07:48.353Z,11.57
2018-05-02T06:10:15.827Z,14.95
2018-05-02T06:12:43.452Z,8.18
2018-05-02T06:15:10.968Z,9.85
2018-05-02T06:17:39.224Z,10.18
2018-05-02T06:20:06.788Z,10.80
2018-05-02T06:22:34.263Z,12.65
2018-05-02T06:25:02.549Z,12.95
2018-05-02T06:27:30.025Z,7.93
2018-05-02T06:29:57.499Z,14.95
2018-05-02T06:32:24.976Z,10.90
2018-05-02T06:34:52.545Z,15.40
2018-05-02T06:37:20.025Z,8.13
2018-05-02T06:39:48.260Z,9.80
2018-05-02T06:42:15.786Z,9.33
2018-05-02T06:44:43.316Z,10.52
2018-05-02T06:47:12.689Z,9.00
2018-05-02T06:49:40.147Z,13.87
2018-05-02T06:52:07.612Z,8.60
2018-05-02T06:54:35.186Z,10.97
2018-05-02T06:57:02.633Z,9.07
2018-05-02T06:59:30.106Z,13.13
2018-05-02T07:01:58.360Z,7.90
2018-05-02T07:04:25.915Z,7.77
2018-05-02T07:06:53.432Z,15.00
2018-05-02T07:09:20.931Z,19.53
2018-05-02T07:11:48.547Z,7.90
2018-05-02T07:14:16.050Z,13.73
2018-05-02T07:16:45.300Z,11.57
2018-05-02T07:19:12.763Z,9.00
2018-05-02T07:21:40.279Z,21.33
2018-05-02T07:24:08.574Z,7.17
2018-05-02T07:26:35.994Z,6.80
2018-05-02T07:29:03.467Z,11.67
2018-05-02T07:31:31.831Z,13.27
2018-05-02T07:34:00.807Z,9.70
2018-05-02T07:36:28.263Z,6.77
2018-05-02T07:38:55.792Z,9.87
2018-05-02T07:41:23.387Z,6.03
2018-05-02T07:43:50.883Z,6.40
2018-05-02T07:46:19.104Z,13.03
2018-05-02T07:48:46.602Z,9.20
2018-05-02T07:51:14.835Z,6.00
2018-05-02T07:53:42.308Z,7.27
2018-05-02T07:56:09.884Z,15.20
2018-05-02T07:58:37.351Z,11.30
2018-05-02T08:01:05.596Z,10.73
2018-05-02T08:03:33.053Z,27.80
2018-05-02T08:06:00.619Z,14.53
2018-05-02T08:08:28.244Z,10.97
2018-05-02T08:10:55.864Z,15.83
2018-05-02T08:13:23.304Z,9.57
2018-05-02T08:15:50.916Z,5.67
2018-05-02T08:18:18.379Z,8.87
2018-05-02T08:20:45.947Z,7.50
2018-05-02T08:23:13.411Z,8.83
2018-05-02T08:25:40.883Z,6.97
2018-05-02T08:28:08.447Z,12.13
2018-05-02T08:30:35.927Z,12.07
2018-05-02T08:33:04.161Z,7.97
2018-05-02T08:35:32.139Z,11.93
2018-05-02T08:37:59.643Z,7.50
2018-05-02T08:40:27.118Z,6.87
2018-05-02T08:42:54.626Z,8.17
2018-05-02T08:45:22.095Z,12.20
2018-05-02T08:47:50.342Z,12.03
2018-05-02T08:50:18.031Z,6.10
2018-05-02T08:52:46.253Z,8.70
2018-05-02T08:55:13.741Z,5.40
2018-05-02T08:57:41.195Z,8.17
2018-05-02T09:00:08.655Z,5.00
2018-05-02T09:02:36.135Z,12.53
2018-05-02T09:05:04.383Z,9.40
2018-05-02T09:07:31.887Z,6.17
2018-05-02T09:09:59.399Z,5.87
2018-05-02T09:12:26.867Z,5.37
2018-05-02T09:14:54.327Z,6.10
2018-05-02T09:17:21.786Z,11.00
2018-05-02T09:19:50.018Z,6.17
2018-05-02T09:22:17.501Z,8.60
2018-05-02T09:24:44.979Z,8.10
2018-05-02T09:27:13.223Z,6.97
2018-05-02T09:29:40.695Z,5.63
2018-05-02T09:32:08.167Z,7.63
2018-05-02T09:34:36.451Z,5.33
2018-05-02T09:37:04.683Z,7.33
2018-05-02T09:39:32.157Z,6.17
2018-05-02T09:41:59.710Z,5.20
2018-05-02T09:44:27.171Z,4.23
2018-05-02T09:46:55.417Z,7.83
2018-05-02T09:49:22.888Z,5.07
2018-05-02T09:51:50.363Z,5.67
2018-05-02T09:54:17.819Z,5.87
2018-05-02T09:56:45.280Z,3.13
2018-05-02T09:59:12.792Z,4.57
2018-05-02T10:01:40.354Z,12.70
2018-05-02T10:04:07.830Z,2.57
2018-05-02T10:06:35.293Z,8.13
2018-05-02T10:09:02.761Z,4.73
2018-05-02T10:11:30.219Z,4.90
2018-05-02T10:16:31.636Z,3.57
2018-05-02T10:18:59.104Z,4.00
2018-05-02T10:21:26.600Z,5.60
2018-05-02T10:23:54.060Z,6.93
2018-05-02T10:26:21.536Z,4.10
2018-05-02T10:28:48.991Z,7.43
2018-05-02T10:31:17.216Z,6.03
2018-05-02T10:33:44.690Z,3.00
2018-05-02T10:36:12.147Z,5.53
2018-05-02T10:38:39.619Z,4.10
2018-05-02T10:41:07.171Z,6.50
2018-05-02T10:43:34.732Z,6.97
2018-05-02T10:46:02.203Z,5.80
2018-05-02T10:48:29.667Z,3.93
2018-05-02T10:50:57.891Z,9.33
2018-05-02T10:53:25.360Z,8.93
2018-05-02T10:55:52.871Z,3.10
2018-05-02T10:58:20.301Z,5.37
2018-05-02T11:00:47.763Z,2.43
2018-05-02T11:03:16.003Z,10.20
2018-05-02T11:05:43.491Z,7.03
2018-05-02T11:08:11.731Z,4.23
2018-05-02T11:10:39.207Z,6.77
2018-05-02T11:13:06.792Z,8.50
2018-05-02T11:15:35.038Z,8.17
2018-05-02T11:18:02.507Z,4.90
2018-05-02T11:20:30.732Z,4.10
2018-05-02T11:22:58.196Z,10.70
2018-05-02T11:25:25.698Z,6.23
2018-05-02T11:27:53.173Z,4.07
2018-05-02T11:30:21.419Z,3.87
2018-05-02T11:32:48.884Z,7.00
2018-05-02T11:35:16.346Z,1.90
2018-05-02T11:37:44.599Z,3.20
2018-05-02T11:40:12.055Z,1.53
2018-05-02T11:42:39.532Z,2.40
2018-05-02T11:45:07.756Z,4.80
2018-05-02T11:47:35.262Z,5.50
2018-05-02T11:50:02.724Z,3.30
2018-05-02T11:52:30.174Z,1.77
2018-05-02T11:54:57.630Z,3.37
2018-05-02T11:57:25.094Z,4.40
2018-05-02T11:59:53.363Z,3.63
2018-05-02T12:02:20.824Z,5.73
2018-05-02T12:04:48.287Z,2.50
2018-05-02T12:07:16.508Z,3.00
2018-05-02T12:09:44.012Z,3.43
2018-05-02T12:12:12.293Z,2.33
2018-05-02T12:14:40.556Z,4.83
2018-05-02T12:17:08.035Z,1.83
2018-05-02T12:19:36.266Z,6.43
2018-05-02T12:22:03.738Z,2.60
2018-05-02T12:24:31.299Z,5.60
2018-05-02T12:26:58.921Z,2.10
2018-05-02T12:29:26.394Z,16.33
2018-05-02T12:31:53.883Z,7.23
2018-05-02T12:34:21.347Z,5.60
2018-05-02T12:36:48.805Z,6.70
2018-05-02T12:39:17.047Z,14.77
2018-05-02T12:41:44.511Z,4.90
2018-05-02T12:44:11.979Z,9.70
2018-05-02T12:46:39.550Z,2.70
2018-05-02T12:49:07.090Z,4.43
2018-05-02T12:51:35.325Z,9.83
2018-05-02T12:54:02.824Z,9.10
2018-05-02T12:56:30.297Z,11.90
2018-05-02T12:58:57.759Z,6.90
2018-05-02T13:01:26.016Z,9.60
2018-05-02T13:03:54.297Z,25.87
2018-05-02T13:06:22.156Z,5.50
2018-05-02T13:08:49.651Z,7.57
2018-05-02T13:11:17.131Z,3.83
2018-05-02T13:13:44.725Z,4.07
2018-05-02T13:16:12.191Z,6.33
2018-05-02T13:18:39.751Z,10.10
2018-05-02T13:21:07.369Z,7.43
2018-05-02T13:23:34.834Z,8.43
2018-05-02T13:26:02.303Z,3.70
2018-05-02T13:28:29.763Z,5.90
2018-05-02T13:30:57.358Z,5.30
2018-05-02T13:33:25.599Z,5.50
2018-05-02T13:35:53.075Z,3.50
2018-05-02T13:38:20.541Z,5.83
2018-05-02T13:40:48.787Z,4.63
2018-05-02T13:43:16.243Z,7.53
2018-05-02T13:45:43.731Z,51.20
2018-05-02T13:48:11.959Z,5.80
2018-05-02T13:50:39.742Z,11.10
2018-05-02T13:53:08.016Z,14.37
2018-05-02T13:55:35.660Z,4.53
2018-05-02T13:58:03.854Z,4.00
2018-05-02T14:00:31.330Z,6.83
2018-05-02T14:02:58.785Z,4.40
2018-05-02T14:05:27.020Z,7.40
2018-05-02T14:07:54.483Z,3.93
2018-05-02T14:10:21.947Z,2.17
2018-05-02T14:12:49.416Z,2.07
2018-05-02T14:15:16.980Z,1.97
2018-05-02T14:17:45.961Z,4.30
2018-05-02T14:20:13.431Z,2.23
2018-05-02T14:22:42.394Z,4.40
2018-05-02T14:25:09.876Z,3.33
2018-05-02T14:27:37.331Z,2.37
2018-05-02T14:30:05.550Z,3.83
2018-05-02T14:32:33.131Z,2.83
2018-05-02T14:35:00.589Z,3.53
2018-05-02T14:37:28.080Z,5.13
2018-05-02T14:39:56.303Z,3.47
2018-05-02T14:42:23.767Z,2.23
2018-05-02T14:44:51.226Z,4.87
2018-05-02T14:47:18.724Z,3.10
2018-05-02T14:49:47.002Z,2.30
2018-05-02T14:52:16.052Z,3.47
2018-05-02T14:54:43.498Z,5.43
2018-05-02T14:57:10.966Z,2.63
2018-05-02T14:59:38.447Z,3.83
2018-05-02T15:02:06.083Z,6.77
2018-05-02T15:04:33.478Z,3.23
2018-05-02T15:07:00.941Z,2.90
2018-05-02T15:09:28.401Z,4.37
2018-05-02T15:11:55.951Z,1.93
2018-05-02T15:14:23.510Z,2.00
2018-05-02T15:16:50.978Z,6.97
2018-05-02T15:19:19.243Z,3.60
2018-05-02T15:21:46.702Z,2.67
2018-05-02T15:24:15.695Z,3.27
2018-05-02T15:26:43.257Z,5.80
2018-05-02T15:29:11.495Z,5.43
2018-05-02T15:31:38.946Z,3.70
2018-05-02T15:34:06.440Z,2.70
2018-05-02T15:36:34.688Z,6.53
2018-05-02T15:39:02.145Z,1.77
2018-05-02T15:41:29.610Z,6.80
2018-05-02T15:43:57.077Z,2.83
2018-05-02T15:46:24.544Z,4.50
2018-05-02T15:48:52.108Z,2.17
2018-05-02T15:51:19.679Z,3.80
2018-05-02T15:53:47.911Z,2.33
2018-05-02T15:56:15.430Z,4.77
2018-05-02T15:58:43.631Z,2.90
2018-05-02T16:01:11.089Z,3.10
2018-05-02T16:03:38.579Z,1.70
2018-05-02T16:06:06.798Z,3.60
2018-05-02T16:08:34.278Z,8.47
2018-05-02T16:11:01.870Z,5.20
2018-05-02T16:13:29.386Z,7.37
2018-05-02T16:15:56.883Z,4.53
2018-05-02T16:18:25.861Z,4.67
2018-05-02T16:20:53.335Z,6.57
2018-05-02T16:23:20.872Z,11.00
2018-05-02T16:25:49.064Z,3.83
2018-05-02T16:28:16.522Z,4.27
2018-05-02T16:30:43.983Z,7.50
2018-05-02T16:33:11.581Z,7.60
2018-05-02T16:35:39.064Z,4.70
2018-05-02T16:38:06.536Z,2.53
2018-05-02T16:40:34.019Z,4.97
2018-05-02T16:43:01.588Z,4.00
2018-05-02T16:45:29.064Z,5.70
2018-05-02T16:47:57.290Z,11.57
2018-05-02T16:50:24.746Z,1.90
2018-05-02T16:52:52.203Z,4.00
2018-05-02T16:55:19.780Z,5.33
2018-05-02T16:57:47.235Z,3.63
2018-05-02T17:00:14.715Z,4.00
2018-05-02T17:02:42.972Z,5.30
2018-05-02T17:05:10.436Z,8.00
2018-05-02T17:07:38.663Z,5.70
2018-05-02T17:10:06.180Z,5.80
2018-05-02T17:12:34.429Z,2.70
2018-05-02T17:15:01.901Z,4.43
2018-05-02T17:17:30.128Z,8.63
2018-05-02T17:19:57.598Z,11.40
2018-05-02T17:22:25.105Z,3.40
2018-05-02T17:24:52.544Z,3.63
2018-05-02T17:27:19.995Z,6.67
2018-05-02T17:29:47.546Z,7.83
2018-05-02T17:32:15.002Z,9.98
2018-05-02T17:34:43.243Z,5.00
2018-05-02T17:37:10.723Z,6.90
2018-05-02T17:39:38.319Z,2.70
2018-05-02T17:42:06.548Z,3.67
2018-05-02T17:44:34.030Z,5.60
2018-05-02T17:47:01.583Z,9.70
2018-05-02T17:49:29.104Z,3.00
2018-05-02T17:51:56.615Z,5.30
2018-05-02T17:54:24.863Z,2.90
2018-05-02T17:56:52.361Z,4.00
2018-05-02T17:59:20.593Z,7.77
2018-05-02T18:01:48.192Z,5.77
2018-05-02T18:04:16.545Z,9.80
2018-05-02T18:06:44.277Z,3.57
2018-05-02T18:09:11.759Z,3.97
2018-05-02T18:11:39.233Z,5.50
2018-05-02T18:14:06.691Z,4.17
2018-05-02T18:16:34.924Z,4.33
2018-05-02T18:19:02.416Z,3.87
2018-05-02T18:21:29.966Z,3.00
2018-05-02T18:23:57.463Z,6.60
2018-05-02T18:26:24.923Z,7.33
2018-05-02T18:28:52.383Z,7.73
2018-05-02T18:31:19.946Z,6.50
2018-05-02T18:33:47.923Z,6.20
2018-05-02T18:36:15.472Z,16.10
2018-05-02T18:38:42.942Z,9.80
2018-05-02T18:41:10.409Z,3.40
2018-05-02T18:43:37.866Z,12.43
2018-05-02T18:46:05.409Z,4.03
2018-05-02T18:48:32.858Z,4.87
2018-05-02T18:51:00.336Z,2.70
2018-05-02T18:53:27.894Z,6.10
2018-05-02T18:55:55.359Z,6.23
2018-05-02T18:58:22.827Z,5.17
2018-05-02T19:00:50.312Z,4.40
2018-05-02T19:03:18.543Z,3.63
2018-05-02T19:05:46.004Z,7.57
2018-05-02T19:08:13.503Z,14.20
2018-05-02T19:10:41.819Z,3.93
2018-05-02T19:13:09.548Z,5.10
2018-05-02T19:15:37.812Z,4.60
2018-05-02T19:18:11.858Z,9.93
2018-05-02T19:20:39.320Z,7.20
2018-05-02T19:23:06.827Z,3.43
2018-05-02T19:25:40.073Z,10.53
2018-05-02T19:28:07.546Z,4.63
2018-05-02T19:30:35.003Z,4.67
2018-05-02T19:36:03.227Z,4.57
2018-05-02T19:38:31.496Z,5.27
2018-05-02T19:41:04.768Z,3.30
2018-05-02T19:43:37.929Z,5.00
2018-05-02T19:46:05.451Z,5.30
2018-05-02T19:48:33.007Z,4.53
2018-05-02T19:51:06.244Z,12.00
2018-05-02T19:53:33.744Z,8.90
2018-05-02T19:56:02.045Z,10.10
2018-05-02T19:58:30.299Z,4.50
2018-05-02T20:01:03.585Z,5.07
2018-05-02T20:03:31.515Z,4.50
2018-05-02T20:05:59.075Z,6.83
2018-05-02T20:08:32.286Z,4.67
2018-05-02T20:11:05.577Z,5.70
2018-05-02T20:13:39.030Z,9.27
2018-05-02T20:16:06.456Z,7.73
2018-05-02T20:18:33.938Z,58.23
2018-05-02T20:21:02.175Z,76.50
2018-05-02T20:23:29.649Z,79.73
2018-05-02T20:25:57.140Z,55.73
2018-05-02T20:28:24.624Z,31.83
2018-05-02T20:30:52.081Z,18.03
2018-05-02T20:33:19.571Z,10.63
2018-05-02T20:35:47.071Z,9.60
2018-05-02T20:38:14.552Z,12.83
2018-05-02T20:40:42.024Z,6.17
2018-05-02T20:43:09.531Z,9.37
2018-05-02T20:45:37.838Z,6.40
2018-05-02T20:48:05.323Z,6.33
2018-05-02T20:50:32.804Z,8.70
2018-05-02T20:53:00.263Z,3.70
2018-05-02T20:55:27.737Z,4.70
2018-05-02T20:57:55.225Z,4.80
2018-05-02T21:00:22.747Z,18.40
2018-05-02T21:02:50.995Z,7.37
2018-05-02T21:05:18.471Z,6.87
2018-05-02T21:07:46.691Z,5.00
2018-05-02T21:10:14.191Z,8.33
2018-05-02T21:12:41.681Z,13.90
2018-05-02T21:15:09.142Z,4.97
2018-05-02T21:17:36.604Z,4.63
2018-05-02T21:20:04.072Z,6.70
2018-05-02T21:22:31.536Z,5.60
2018-05-02T21:24:59.007Z,6.10
2018-05-02T21:27:26.467Z,6.27
2018-05-02T21:29:53.927Z,4.60
2018-05-02T21:32:21.509Z,4.43
2018-05-02T21:34:48.979Z,4.50
2018-05-02T21:37:17.211Z,4.87
2018-05-02T21:39:44.744Z,7.13
2018-05-02T21:42:12.190Z,8.43
2018-05-02T21:44:39.704Z,6.07
2018-05-02T21:47:07.160Z,7.03
2018-05-02T21:49:34.632Z,7.63
2018-05-02T21:52:02.863Z,7.73
2018-05-02T21:54:30.331Z,8.27
2018-05-02T21:56:57.862Z,6.30
2018-05-02T21:59:25.420Z,7.10
2018-05-02T22:01:52.885Z,10.30
2018-05-02T22:04:20.348Z,4.70
2018-05-02T22:06:47.817Z,12.63
2018-05-02T22:09:15.289Z,5.20
2018-05-02T22:11:42.754Z,7.73
2018-05-02T22:14:10.216Z,6.83
2018-05-02T22:16:37.683Z,11.40
2018-05-02T22:19:05.922Z,8.53
2018-05-02T22:21:33.398Z,11.63
2018-05-02T22:24:00.951Z,8.30
2018-05-02T22:26:28.414Z,4.13
2018-05-02T22:28:55.874Z,11.33
2018-05-02T22:31:23.423Z,6.47
2018-05-02T22:33:50.883Z,13.53
2018-05-02T22:36:18.437Z,7.33
2018-05-02T22:38:45.956Z,8.37
2018-05-02T22:41:13.450Z,6.93
2018-05-02T22:43:40.922Z,8.10
2018-05-02T22:46:08.390Z,5.60
2018-05-02T22:48:36.628Z,9.90
2018-05-02T22:51:04.074Z,6.30
2018-05-02T22:53:31.542Z,7.13
2018-05-02T22:55:59.003Z,5.63
2018-05-02T22:58:26.478Z,7.33
2018-05-02T23:00:54.023Z,6.87
2018-05-02T23:03:21.475Z,4.73
2018-05-02T23:05:48.998Z,5.57
2018-05-02T23:08:16.491Z,7.63
2018-05-02T23:10:43.982Z,7.43
2018-05-02T23:13:12.215Z,8.23
2018-05-02T23:15:39.680Z,11.47
2018-05-02T23:18:07.139Z,7.00
2018-05-02T23:20:34.703Z,6.23
2018-05-02T23:23:02.261Z,11.13
2018-05-02T23:25:29.813Z,7.00
2018-05-02T23:27:57.328Z,7.43
2018-05-02T23:30:24.861Z,5.13
2018-05-02T23:32:52.259Z,5.37
2018-05-02T23:35:19.742Z,5.63
2018-05-02T23:37:47.207Z,6.03
2018-05-02T23:40:14.719Z,7.27
2018-05-02T23:42:42.249Z,10.43
2018-05-02T23:45:10.470Z,9.43
2018-05-02T23:47:37.955Z,7.57
2018-05-02T23:50:05.409Z,9.20
2018-05-02T23:52:32.871Z,10.00
2018-05-02T23:55:00.419Z,7.13
2018-05-02T23:57:27.878Z,11.87
2018-05-02T23:59:56.845Z,8.97
